Time;durP1;ratioP1;P1;durP2;ratioP2;P2;SDS_P1;SDS_P2;PMS_P1;PMS_P2;Temp;Humidity;BMP_temperature;BMP_pressure;BME280_temperature;BME280_humidity;BME280_pressure;Samples;Min_cycle;Max_cycle;Signal;HPM_P1;HPM_P2
2021/12/01 00:01:28;;;;;;;22.27;1.98;;;27.30;22.40;;;;;;5073084;28;20082;-64
2021/12/01 00:03:55;;;;;;;12.00;2.00;;;27.20;22.80;;;;;;5072969;28;20087;-63
2021/12/01 00:06:21;;;;;;;17.13;2.05;;;26.60;37.90;;;;;;5055678;28;20407;-64
2021/12/01 00:08:47;;;;;;;10.02;1.73;;;26.80;23.50;;;;;;5037776;28;20596;-63
2021/12/01 00:11:14;;;;;;;17.27;1.63;;;26.70;23.70;;;;;;5056012;28;20071;-66
2021/12/01 00:13:40;;;;;;;15.70;1.75;;;26.60;23.80;;;;;;5072935;28;20159;-65
2021/12/01 00:16:08;;;;;;;15.30;1.17;;;26.40;23.80;;;;;;5073219;28;20526;-64
2021/12/01 00:18:34;;;;;;;10.05;1.60;;;26.30;23.50;;;;;;5072970;28;20099;-64
2021/12/01 00:21:01;;;;;;;20.83;1.52;;;26.10;23.70;;;;;;5055428;28;20068;-64
2021/12/01 00:23:27;;;;;;;13.10;1.90;;;26.00;23.90;;;;;;5058900;28;20079;-63
2021/12/01 00:25:54;;;;;;;8.52;2.30;;;25.80;24.70;;;;;;5077400;28;20084;-65
2021/12/01 00:28:21;;;;;;;10.95;2.63;;;25.60;24.60;;;;;;5072840;28;20072;-63
2021/12/01 00:30:47;;;;;;;14.52;1.98;;;25.40;25.10;;;;;;5055437;28;20533;-64
2021/12/01 00:33:17;;;;;;;21.58;3.03;;;25.30;25.30;;;;;;5055449;28;20073;-64
2021/12/01 00:35:45;;;;;;;27.95;3.15;;;25.10;25.40;;;;;;5071864;28;20083;-66
2021/12/01 00:38:12;;;;;;;35.50;4.15;;;25.00;25.50;;;;;;5071026;28;20111;-63
2021/12/01 00:40:38;;;;;;;41.88;4.43;;;24.80;25.80;;;;;;5071017;28;20103;-66
2021/12/01 00:43:04;;;;;;;58.35;5.55;;;24.70;26.30;;;;;;5053503;28;20088;-62
2021/12/01 00:45:32;;;;;;;41.03;5.63;;;24.50;26.30;;;;;;5053480;28;20176;-62
2021/12/01 00:47:59;;;;;;;33.67;4.07;;;24.40;26.30;;;;;;5054020;28;20068;-65
2021/12/01 00:50:27;;;;;;;28.38;3.65;;;24.20;26.30;;;;;;5053037;28;20313;-63
2021/12/01 00:52:57;;;;;;;27.27;4.28;;;24.10;26.60;;;;;;5052333;28;20109;-65
2021/12/01 00:55:23;;;;;;;34.47;5.90;;;24.00;26.90;;;;;;5087114;28;20170;-64
2021/12/01 00:57:51;;;;;;;36.63;5.53;;;23.90;27.70;;;;;;5055962;28;20064;-63
2021/12/01 01:00:18;;;;;;;54.33;6.28;;;23.70;27.80;;;;;;5053815;28;20083;-61
2021/12/01 01:02:45;;;;;;;50.58;6.47;;;23.60;28.10;;;;;;5055645;28;20065;-62
2021/12/01 01:05:11;;;;;;;30.85;6.35;;;23.50;28.10;;;;;;5052585;28;20096;-63
2021/12/01 01:07:38;;;;;;;50.08;6.45;;;23.40;28.40;;;;;;5052774;28;20526;-64
2021/12/01 01:18:29;;;;;;;68.55;9.45;;;22.90;30.50;;;;;;5069940;28;20160;-64
2021/12/01 01:20:55;;;;;;;79.47;9.27;;;22.80;31.10;;;;;;5052138;28;20111;-63
2021/12/01 01:23:24;;;;;;;60.25;7.20;;;22.60;31.30;;;;;;5059763;28;20477;-60
2021/12/01 01:25:50;;;;;;;54.70;7.05;;;22.60;31.50;;;;;;5088429;28;20088;-61
2021/12/01 01:28:17;;;;;;;29.02;4.50;;;22.50;31.40;;;;;;5074607;28;20077;-62
2021/12/01 01:30:43;;;;;;;33.42;4.53;;;22.40;30.80;;;;;;5053059;28;20092;-62
2021/12/01 01:33:09;;;;;;;34.65;5.35;;;22.30;30.40;;;;;;5051654;28;20076;-62
2021/12/01 01:35:36;;;;;;;44.30;5.22;;;22.20;30.50;;;;;;5034430;28;20097;-65
2021/12/01 01:38:02;;;;;;;39.67;6.65;;;22.10;30.90;;;;;;5051632;28;20474;-64
2021/12/01 01:40:29;;;;;;;52.58;6.57;;;22.00;31.40;;;;;;5051940;28;20182;-62
2021/12/01 01:42:56;;;;;;;38.53;6.22;;;22.00;31.80;;;;;;5050668;28;20078;-63
2021/12/01 01:45:22;;;;;;;41.08;4.93;;;21.90;32.10;;;;;;5069388;28;20093;-65
2021/12/01 01:48:05;;;;;;;47.90;5.32;;;21.80;32.20;;;;;;5059217;28;20066;-63
2021/12/01 01:50:37;;;;;;;57.55;6.70;;;21.70;32.60;;;;;;5051530;28;20089;-66
2021/12/01 01:53:12;;;;;;;35.72;5.00;;;21.60;32.60;;;;;;5052263;28;20105;-63
2021/12/01 01:55:44;;;;;;;44.47;6.47;;;21.60;33.50;;;;;;5070101;28;20104;-64
2021/12/01 01:58:12;;;;;;;45.53;5.80;;;21.50;33.70;;;;;;5052905;28;20073;-62
2021/12/01 02:00:51;;;;;;;41.00;5.68;;;21.40;34.20;;;;;;5052239;28;20122;-62
2021/12/01 02:03:20;;;;;;;43.75;6.15;;;21.40;34.50;;;;;;5051543;28;20084;-64
2021/12/01 02:05:47;;;;;;;44.83;6.10;;;21.30;34.30;;;;;;5051382;28;20085;-62
2021/12/01 02:08:20;;;;;;;43.50;8.10;;;21.20;34.40;;;;;;5051980;28;20558;-63
2021/12/01 02:10:51;;;;;;;47.17;9.32;;;21.10;34.50;;;;;;5052269;28;20119;-64
2021/12/01 02:13:19;;;;;;;42.08;8.10;;;21.00;34.60;;;;;;5051814;28;20151;-62
2021/12/01 02:15:47;;;;;;;44.30;7.13;;;21.00;35.40;;;;;;5061283;28;20215;-65
2021/12/01 02:18:14;;;;;;;46.40;7.32;;;20.90;34.60;;;;;;5050166;28;20074;-65
2021/12/01 02:20:57;;;;;;;53.78;6.57;;;20.90;34.90;;;;;;5052711;28;20077;-64
2021/12/01 02:23:23;;;;;;;54.53;8.25;;;20.90;35.20;;;;;;5069515;28;20526;-65
2021/12/01 02:25:50;;;;;;;44.85;6.43;;;20.80;35.30;;;;;;5085452;28;20568;-64
2021/12/01 02:28:16;;;;;;;72.35;8.68;;;20.80;35.50;;;;;;5049717;28;20463;-63
2021/12/01 02:30:43;;;;;;;70.75;9.35;;;20.70;35.60;;;;;;5051396;28;20115;-65
2021/12/01 02:33:09;;;;;;;;;;;20.70;35.80;;;;;;5085386;28;20080;-65
2021/12/01 02:35:35;;;;;;;68.90;10.85;;;20.70;35.80;;;;;;5072344;28;19964;-62
2021/12/01 02:38:04;;;;;;;98.90;12.45;;;20.60;36.10;;;;;;5051395;28;20077;-64
2021/12/01 02:40:31;;;;;;;64.50;10.43;;;20.50;36.90;;;;;;5068921;28;20550;-64
2021/12/01 02:42:57;;;;;;;55.60;9.45;;;20.40;37.10;;;;;;5051533;28;20089;-66
2021/12/01 02:45:23;;;;;;;69.53;10.80;;;20.40;37.20;;;;;;5052440;28;20089;-64
2021/12/01 02:47:50;;;;;;;66.35;10.45;;;20.30;37.20;;;;;;5056032;28;20088;-67
2021/12/01 02:50:16;;;;;;;75.72;12.77;;;20.20;37.00;;;;;;5055176;28;20170;-64
2021/12/01 02:52:43;;;;;;;62.08;12.00;;;20.20;37.00;;;;;;5055752;28;20133;-65
2021/12/01 02:55:11;;;;;;;62.03;10.77;;;20.20;37.10;;;;;;5044375;28;20515;-64
2021/12/01 02:57:59;;;;;;;87.95;12.52;;;20.20;37.20;;;;;;5055526;28;20087;-65
2021/12/01 03:00:26;;;;;;;56.35;11.05;;;20.10;37.60;;;;;;5072584;28;20076;-63
2021/12/01 03:02:56;;;;;;;75.80;11.88;;;20.10;37.90;;;;;;5055578;28;20077;-63
2021/12/01 03:05:23;;;;;;;65.05;11.88;;;20.00;37.90;;;;;;5056213;28;20512;-64
2021/12/01 03:07:51;;;;;;;68.45;13.00;;;19.90;38.50;;;;;;5038682;28;20070;-65
2021/12/01 03:10:18;;;;;;;83.38;12.88;;;19.90;39.20;;;;;;5072519;28;20088;-64
2021/12/01 03:12:44;;;;;;;61.42;11.68;;;19.90;39.20;;;;;;5038470;28;20069;-65
2021/12/01 03:15:16;;;;;;;66.57;12.80;;;19.80;39.30;;;;;;5037226;28;20069;-62
2021/12/01 03:17:44;;;;;;;89.50;13.35;;;19.80;39.30;;;;;;5055927;28;20469;-65
2021/12/01 03:20:12;;;;;;;98.65;14.27;;;19.70;39.30;;;;;;5055011;28;20069;-63
2021/12/01 03:22:38;;;;;;;90.97;15.50;;;19.60;39.30;;;;;;5055448;28;20077;-63
2021/12/01 03:25:12;;;;;;;95.65;15.60;;;19.60;39.40;;;;;;5077347;28;20088;-63
2021/12/01 03:27:39;;;;;;;90.57;15.10;;;19.50;39.70;;;;;;5072174;28;20130;-65
2021/12/01 03:30:08;;;;;;;81.38;14.85;;;19.40;40.00;;;;;;5070762;28;20112;-62
2021/12/01 03:32:35;;;;;;;76.05;14.57;;;19.40;39.60;;;;;;5054115;28;20073;-61
2021/12/01 03:35:05;;;;;;;86.80;15.02;;;19.40;39.20;;;;;;5072273;28;20539;-63
2021/12/01 03:37:31;;;;;;;85.10;15.48;;;19.30;39.30;;;;;;5055185;28;20100;-63
2021/12/01 03:39:58;;;;;;;103.50;17.20;;;19.30;39.10;;;;;;5071688;28;20073;-62
2021/12/01 03:42:26;;;;;;;66.47;14.73;;;19.30;39.80;;;;;;5055237;28;20128;-62
2021/12/01 03:44:55;;;;;;;82.43;14.90;;;19.20;39.80;;;;;;5071722;28;20146;-64
2021/12/01 03:47:25;;;;;;;71.97;17.10;;;19.20;40.20;;;;;;5054696;28;20101;-62
2021/12/01 03:49:53;;;;;;;99.00;17.83;;;19.20;40.50;;;;;;5054240;28;20089;-61
2021/12/01 03:52:20;;;;;;;102.95;18.83;;;19.10;40.40;;;;;;5054457;28;20133;-63
2021/12/01 03:54:47;;;;;;;97.97;18.48;;;19.10;40.70;;;;;;5053859;28;20077;-63
2021/12/01 03:57:15;;;;;;;98.90;17.83;;;19.10;41.00;;;;;;5070472;28;20093;-63
2021/12/01 03:59:42;;;;;;;84.45;16.40;;;19.10;41.40;;;;;;5054425;28;20787;-62
2021/12/01 04:02:09;;;;;;;76.30;17.13;;;19.00;41.50;;;;;;5070241;28;20126;-63
2021/12/01 04:04:36;;;;;;;129.77;19.77;;;18.90;42.10;;;;;;5071255;28;20093;-63
2021/12/01 04:07:02;;;;;;;133.65;21.30;;;18.90;41.60;;;;;;5053402;28;20080;-64
2021/12/01 04:09:31;;;;;;;125.03;24.10;;;18.80;41.80;;;;;;5053877;28;20531;-62
2021/12/01 04:11:57;;;;;;;136.60;25.38;;;18.70;42.00;;;;;;5069941;28;20142;-64
2021/12/01 04:14:24;;;;;;;139.15;24.20;;;18.70;41.90;;;;;;5053863;28;20526;-64
2021/12/01 04:16:50;;;;;;;;;;;18.70;42.10;;;;;;5054508;28;20173;-64
2021/12/01 04:19:17;;;;;;;117.70;21.67;;;18.70;42.20;;;;;;5070933;28;19961;-64
2021/12/01 04:21:43;;;;;;;109.05;24.55;;;18.70;42.50;;;;;;5054265;28;20074;-62
2021/12/01 04:24:10;;;;;;;108.35;24.73;;;18.50;42.60;;;;;;5053943;28;20093;-65
2021/12/01 04:26:36;;;;;;;161.73;26.27;;;18.50;42.60;;;;;;5053793;28;20134;-63
2021/12/01 04:29:05;;;;;;;137.77;28.42;;;18.50;42.90;;;;;;5053957;28;20074;-67
2021/12/01 04:31:33;;;;;;;151.35;28.10;;;18.40;42.80;;;;;;5036604;28;20080;-64
2021/12/01 04:34:01;;;;;;;125.22;29.23;;;18.40;43.20;;;;;;5052939;28;20549;-62
2021/12/01 04:36:33;;;;;;;135.57;28.63;;;18.40;43.30;;;;;;5053104;28;20130;-66
2021/12/01 04:39:03;;;;;;;164.43;30.10;;;18.40;43.30;;;;;;5055950;28;20073;-64
2021/12/01 04:41:30;;;;;;;136.75;28.35;;;18.30;43.50;;;;;;5054470;28;20077;-63
2021/12/01 04:44:00;;;;;;;167.77;30.95;;;18.20;43.70;;;;;;5072163;28;20389;-63
2021/12/01 04:46:26;;;;;;;156.57;28.95;;;18.20;43.70;;;;;;5054566;28;20622;-65
2021/12/01 04:48:52;;;;;;;167.48;30.55;;;18.20;43.80;;;;;;5072179;28;20198;-64
2021/12/01 04:51:18;;;;;;;;;;;18.20;44.40;;;;;;5054915;28;20093;-63
2021/12/01 04:53:45;;;;;;;155.05;29.40;;;18.10;44.20;;;;;;5072109;28;19988;-64
2021/12/01 04:56:11;;;;;;;161.88;29.92;;;18.10;44.10;;;;;;5058296;28;20069;-66
2021/12/01 04:58:38;;;;;;;;;;;18.10;44.20;;;;;;5072292;28;20069;-64
2021/12/01 05:01:04;;;;;;;122.55;28.15;;;18.00;44.30;;;;;;5071883;28;19957;-65
2021/12/01 05:03:31;;;;;;;148.98;29.33;;;18.00;44.50;;;;;;5055451;28;20439;-65
2021/12/01 05:05:57;;;;;;;154.88;32.80;;;18.00;44.50;;;;;;5070988;28;20107;-66
2021/12/01 05:08:24;;;;;;;153.85;30.48;;;18.00;45.00;;;;;;5054668;28;20081;-66
2021/12/01 05:10:51;;;;;;;152.50;31.08;;;17.90;44.80;;;;;;5034974;28;20443;-65
2021/12/01 05:13:17;;;;;;;155.68;31.50;;;17.90;45.20;;;;;;5053808;28;20077;-67
2021/12/01 05:15:44;;;;;;;148.80;31.42;;;17.90;45.20;;;;;;5039007;28;20111;-66
2021/12/01 05:18:10;;;;;;;186.85;31.85;;;17.80;45.00;;;;;;5038979;28;20463;-65
2021/12/01 05:20:37;;;;;;;142.27;33.17;;;17.80;45.30;;;;;;5071535;28;20077;-66
2021/12/01 05:23:03;;;;;;;155.52;31.05;;;17.80;45.80;;;;;;5055037;28;20156;-64
2021/12/01 05:25:30;;;;;;;175.07;31.25;;;17.70;45.40;;;;;;5077959;28;20089;-65
2021/12/01 05:27:56;;;;;;;;;;;17.70;45.80;;;;;;5054463;28;20178;-65
2021/12/01 05:30:23;;;;;;;166.80;31.02;;;17.60;46.10;;;;;;5069473;28;20051;-64
2021/12/01 05:32:49;;;;;;;172.38;32.35;;;17.60;45.70;;;;;;5051655;28;20069;-65
2021/12/01 05:35:15;;;;;;;;;;;17.60;46.10;;;;;;5054870;28;20551;-65
2021/12/01 05:37:41;;;;;;;178.38;34.33;;;17.70;46.30;;;;;;5070908;28;20055;-65
2021/12/01 05:40:08;;;;;;;;;;;17.60;46.20;;;;;;5053730;28;20080;-65
2021/12/01 05:42:34;;;;;;;164.38;33.72;;;17.50;46.40;;;;;;5069081;28;20007;-67
2021/12/01 05:45:00;;;;;;;;;;;17.50;46.70;;;;;;5070837;28;20081;-66
2021/12/01 05:47:26;;;;;;;181.70;34.00;;;17.50;46.70;;;;;;5070214;28;19980;-67
2021/12/01 05:49:52;;;;;;;;;;;17.50;46.90;;;;;;5051841;28;20089;-66
2021/12/01 05:52:19;;;;;;;180.13;35.67;;;17.50;47.00;;;;;;5052968;28;19988;-67
2021/12/01 05:54:50;;;;;;;;;;;17.40;46.90;;;;;;5086861;28;20158;-65
2021/12/01 05:57:16;;;;;;;146.25;31.45;;;17.40;46.80;;;;;;5060078;28;19977;-67
2021/12/01 05:59:43;;;;;;;167.38;33.70;;;17.30;46.60;;;;;;5070461;28;20099;-64
2021/12/01 06:02:09;;;;;;;;;;;17.30;46.70;;;;;;5070842;28;20081;-66
2021/12/01 06:04:35;;;;;;;153.88;34.55;;;17.40;47.50;;;;;;5068769;28;19988;-68
2021/12/01 06:07:01;;;;;;;;;;;17.30;47.60;;;;;;5052195;28;20158;-66
2021/12/01 06:09:28;;;;;;;175.18;38.28;;;17.30;47.20;;;;;;5052714;28;19964;-66
2021/12/01 06:11:54;;;;;;;;;;;17.30;47.40;;;;;;5088143;28;20564;-67
2021/12/01 06:14:20;;;;;;;183.88;34.65;;;17.30;48.00;;;;;;5070732;28;19957;-64
2021/12/01 06:16:47;;;;;;;153.05;34.15;;;17.20;47.70;;;;;;5070188;28;20073;-67
2021/12/01 06:19:13;;;;;;;164.35;33.80;;;17.20;48.00;;;;;;5052691;28;20112;-65
2021/12/01 06:21:40;;;;;;;160.02;35.00;;;17.20;48.60;;;;;;5075139;28;20093;-65
2021/12/01 06:24:06;;;;;;;169.43;36.08;;;17.10;48.30;;;;;;5078768;28;20121;-66
2021/12/01 06:26:33;;;;;;;156.40;33.97;;;17.10;49.30;;;;;;5074524;28;20073;-65
2021/12/01 06:28:59;;;;;;;182.65;36.17;;;17.00;48.80;;;;;;5073933;28;20088;-66
2021/12/01 06:31:26;;;;;;;;;;;17.00;48.70;;;;;;5057015;28;20753;-67
2021/12/01 06:33:52;;;;;;;165.95;35.60;;;17.00;48.60;;;;;;5072376;28;19957;-64
2021/12/01 06:36:18;;;;;;;;;;;16.90;48.50;;;;;;5055635;28;20073;-66
2021/12/01 06:38:45;;;;;;;168.90;35.60;;;16.80;49.20;;;;;;5073780;28;20056;-64
2021/12/01 06:41:11;;;;;;;;;;;16.80;49.10;;;;;;5074174;28;20526;-66
2021/12/01 06:43:37;;;;;;;184.18;36.75;;;16.80;48.70;;;;;;5072103;28;19961;-66
2021/12/01 06:46:04;;;;;;;185.85;37.60;;;15.70;48.30;;;;;;5055738;28;20092;-65
2021/12/01 06:48:29;;;;;;;;;;;16.80;49.20;;;;;;5074240;28;20400;-65
2021/12/01 06:50:56;;;;;;;150.55;35.60;;;16.80;49.00;;;;;;5073336;28;19979;-64
2021/12/01 06:53:22;;;;;;;156.50;36.33;;;16.80;49.20;;;;;;5057327;28;20524;-66
2021/12/01 06:55:48;;;;;;;;;;;16.70;49.10;;;;;;5058047;28;20444;-65
2021/12/01 06:58:15;;;;;;;148.85;34.42;;;16.70;49.20;;;;;;5073606;28;20026;-65
2021/12/01 07:00:41;;;;;;;;;;;16.60;49.00;;;;;;5055569;28;20074;-64
2021/12/01 07:03:07;;;;;;;150.77;37.63;;;16.60;49.20;;;;;;5071905;28;19956;-65
2021/12/01 07:05:33;;;;;;;;;;;16.60;49.50;;;;;;5056104;28;20103;-66
2021/12/01 07:08:00;;;;;;;163.55;38.08;;;16.60;49.70;;;;;;5090672;28;20408;-65
2021/12/01 07:10:26;;;;;;;136.80;37.75;;;16.60;49.70;;;;;;5057633;28;20548;-66
2021/12/01 07:12:52;;;;;;;;;;;16.60;49.70;;;;;;5056883;28;20100;-67
2021/12/01 07:15:19;;;;;;;163.60;38.97;;;16.50;49.60;;;;;;5072398;28;19964;-65
2021/12/01 07:17:45;;;;;;;161.60;39.03;;;16.50;49.80;;;;;;5039199;28;20069;-64
2021/12/01 07:20:11;;;;;;;;;;;16.50;49.70;;;;;;5039724;28;20096;-67
2021/12/01 07:22:38;;;;;;;166.43;39.65;;;16.50;49.80;;;;;;5071862;28;19957;-66
2021/12/01 07:25:05;;;;;;;154.55;39.00;;;16.40;50.00;;;;;;5089842;28;20229;-65
2021/12/01 07:27:32;;;;;;;146.45;38.70;;;16.40;50.00;;;;;;5054060;28;20092;-64
2021/12/01 07:29:58;;;;;;;166.05;40.70;;;16.40;50.10;;;;;;5072884;28;20170;-65
2021/12/01 07:32:24;;;;;;;;;;;16.40;50.10;;;;;;5054667;28;20524;-64
2021/12/01 07:34:51;;;;;;;163.65;41.40;;;16.30;50.10;;;;;;5071598;28;20094;-64
2021/12/01 07:37:19;;;;;;;175.65;40.17;;;16.30;50.10;;;;;;5072990;28;20554;-66
2021/12/01 07:39:46;;;;;;;174.68;42.22;;;16.30;50.20;;;;;;5040012;28;20084;-63
2021/12/01 07:42:14;;;;;;;175.68;41.90;;;16.20;50.20;;;;;;5038451;28;20069;-66
2021/12/01 07:44:40;;;;;;;158.55;44.13;;;16.30;50.50;;;;;;5072761;28;20578;-66
2021/12/01 07:47:08;;;;;;;157.65;41.08;;;16.30;50.20;;;;;;5090091;28;20079;-65
2021/12/01 07:49:35;;;;;;;138.82;41.80;;;16.30;50.20;;;;;;5042156;28;20081;-66
2021/12/01 07:52:04;;;;;;;135.40;39.38;;;16.20;49.90;;;;;;5054689;28;20136;-65
2021/12/01 07:54:31;;;;;;;129.05;38.67;;;16.20;49.60;;;;;;5055626;28;20077;-65
2021/12/01 07:56:57;;;;;;;147.00;44.30;;;16.10;49.20;;;;;;5055852;28;20080;-63
2021/12/01 07:59:24;;;;;;;128.40;39.03;;;16.00;49.30;;;;;;5072593;28;20167;-64
2021/12/01 08:01:51;;;;;;;122.60;39.38;;;16.00;49.30;;;;;;5056200;28;20084;-63
2021/12/01 08:04:17;;;;;;;123.20;35.83;;;16.00;49.10;;;;;;5052772;28;20108;-65
2021/12/01 08:06:43;;;;;;;;;;;16.10;48.80;;;;;;5055421;28;20150;-67
2021/12/01 08:09:10;;;;;;;115.97;31.95;;;16.00;48.20;;;;;;5055099;28;19964;-63
2021/12/01 08:11:40;;;;;;;113.80;33.28;;;16.00;47.80;;;;;;5055416;28;20101;-67
2021/12/01 08:14:07;;;;;;;112.07;32.65;;;16.00;47.60;;;;;;5054595;28;20073;-66
2021/12/01 08:16:37;;;;;;;92.15;30.20;;;16.00;47.30;;;;;;5054687;28;20073;-64
2021/12/01 08:19:05;;;;;;;101.53;30.63;;;16.00;47.20;;;;;;5053212;28;20097;-63
2021/12/01 08:21:32;;;;;;;93.30;30.90;;;15.90;47.10;;;;;;5055117;28;20076;-67
2021/12/01 08:23:58;;;;;;;106.22;31.02;;;15.90;47.30;;;;;;5070893;28;20069;-66
2021/12/01 08:26:25;;;;;;;;;;;15.90;47.40;;;;;;5038507;28;20104;-64
2021/12/01 08:28:52;;;;;;;109.07;31.35;;;15.80;47.50;;;;;;5055601;28;19957;-64
2021/12/01 08:31:19;;;;;;;;;;;15.80;47.70;;;;;;5072170;28;20111;-64
2021/12/01 08:33:47;;;;;;;92.25;29.45;;;15.80;47.70;;;;;;5054357;28;19957;-65
2021/12/01 08:36:14;;;;;;;88.22;28.15;;;15.80;47.20;;;;;;5071667;28;20077;-64
2021/12/01 08:38:42;;;;;;;93.53;28.27;;;15.80;47.10;;;;;;5038953;28;20178;-65
2021/12/01 08:41:09;;;;;;;97.53;28.83;;;15.80;46.60;;;;;;5053396;28;20082;-63
2021/12/01 08:43:36;;;;;;;107.07;28.02;;;15.80;46.20;;;;;;5071420;28;20076;-65
2021/12/01 08:46:07;;;;;;;84.13;26.92;;;15.80;46.10;;;;;;5054053;28;20092;-66
2021/12/01 08:48:34;;;;;;;100.38;28.48;;;15.80;46.40;;;;;;5042481;28;20076;-64
2021/12/01 08:51:02;;;;;;;107.47;29.00;;;15.80;46.50;;;;;;5045605;28;20523;-67
2021/12/01 08:53:31;;;;;;;102.05;29.63;;;15.80;46.60;;;;;;5071165;28;20124;-65
2021/12/01 08:55:58;;;;;;;97.85;27.92;;;15.80;46.70;;;;;;5072109;28;20126;-63
2021/12/01 08:58:25;;;;;;;87.18;25.23;;;15.70;46.40;;;;;;5037962;28;20077;-65
2021/12/01 09:00:54;;;;;;;86.38;24.88;;;15.70;46.40;;;;;;5054929;28;20532;-67
2021/12/01 09:03:20;;;;;;;79.70;23.48;;;15.70;46.20;;;;;;5084885;28;20442;-64
2021/12/01 09:05:47;;;;;;;69.28;21.27;;;15.60;45.70;;;;;;5071297;28;20092;-66
2021/12/01 09:08:15;;;;;;;59.08;19.60;;;15.60;45.30;;;;;;5071134;28;20431;-65
2021/12/01 09:10:42;;;;;;;69.78;20.63;;;15.50;44.90;;;;;;5037668;28;20076;-65
2021/12/01 09:13:08;;;;;;;;;;;15.50;44.70;;;;;;5055281;28;20591;-65
2021/12/01 09:15:35;;;;;;;57.80;19.23;;;15.50;45.00;;;;;;5069433;28;20319;-66
2021/12/01 09:18:02;;;;;;;52.15;16.85;;;15.40;44.90;;;;;;5070864;28;20081;-66
2021/12/01 09:20:29;;;;;;;46.65;15.30;;;15.50;44.80;;;;;;5053660;28;20143;-64
2021/12/01 09:22:56;;;;;;;50.55;15.68;;;15.50;44.80;;;;;;5038715;28;20096;-66
2021/12/01 09:25:22;;;;;;;47.63;14.15;;;15.50;44.40;;;;;;5090187;28;20733;-65
2021/12/01 09:27:49;;;;;;;39.42;14.10;;;15.50;44.00;;;;;;5054493;28;20085;-64
2021/12/01 09:30:17;;;;;;;43.67;12.13;;;15.40;43.60;;;;;;5036199;28;20176;-65
2021/12/01 09:32:45;;;;;;;44.15;10.95;;;15.40;42.90;;;;;;5051744;28;20070;-65
2021/12/01 09:35:13;;;;;;;34.65;9.60;;;15.40;42.80;;;;;;5053536;28;20088;-66
2021/12/01 09:37:39;;;;;;;32.33;10.55;;;15.50;43.20;;;;;;5053531;28;20069;-64
2021/12/01 09:40:13;;;;;;;34.05;9.88;;;15.50;42.70;;;;;;5054474;28;20164;-64
2021/12/01 09:42:46;;;;;;;36.30;9.80;;;15.40;43.00;;;;;;5036584;28;20080;-64
2021/12/01 09:45:13;;;;;;;29.83;9.05;;;15.40;43.00;;;;;;5070141;28;20582;-65
2021/12/01 09:47:40;;;;;;;31.55;9.45;;;15.40;43.00;;;;;;5070263;28;20080;-65
2021/12/01 09:50:07;;;;;;;36.33;9.15;;;15.40;43.00;;;;;;5053971;28;20569;-64
2021/12/01 09:52:34;;;;;;;30.85;9.13;;;15.40;42.90;;;;;;5053940;28;20200;-64
2021/12/01 09:55:00;;;;;;;39.33;10.13;;;15.30;43.00;;;;;;5051381;28;20541;-65
2021/12/01 09:57:28;;;;;;;31.95;9.57;;;15.30;43.00;;;;;;5070428;28;20089;-65
2021/12/01 09:59:54;;;;;;;34.22;9.48;;;15.30;43.20;;;;;;5051481;28;20081;-65
2021/12/01 10:02:24;;;;;;;24.23;8.10;;;15.20;43.10;;;;;;5035597;28;20105;-65
2021/12/01 10:04:51;;;;;;;34.45;8.90;;;15.20;43.20;;;;;;5036438;28;20089;-64
2021/12/01 10:07:24;;;;;;;27.80;10.00;;;15.20;43.40;;;;;;5036579;28;20144;-64
2021/12/01 10:09:57;;;;;;;27.13;9.25;;;15.20;43.40;;;;;;5053893;28;20438;-65
2021/12/01 10:12:49;;;;;;;34.47;8.70;;;15.10;44.20;;;;;;5051635;28;20076;-66
2021/12/01 10:15:31;;;;;;;26.42;8.20;;;15.20;44.30;;;;;;5054077;28;20072;-66
2021/12/01 10:18:17;;;;;;;29.10;8.35;;;15.20;44.50;;;;;;5041261;28;20156;-64
2021/12/01 10:20:55;;;;;;;28.15;8.00;;;15.20;44.70;;;;;;5035657;28;20105;-65
2021/12/01 10:23:23;;;;;;;20.60;7.18;;;15.10;44.30;;;;;;5045544;28;20115;-66
2021/12/01 10:25:49;;;;;;;27.50;6.72;;;15.10;44.20;;;;;;5088976;28;20107;-65
2021/12/01 10:28:35;;;;;;;;;;;15.00;43.70;;;;;;5080528;28;20088;-65
2021/12/01 10:31:02;;;;;;;19.35;6.10;;;15.00;44.20;;;;;;5073167;28;20334;-66
2021/12/01 10:33:29;;;;;;;23.73;6.40;;;15.00;43.90;;;;;;5052422;28;20073;-65
2021/12/01 10:36:01;;;;;;;23.45;6.80;;;14.90;43.90;;;;;;5052853;28;20096;-65
2021/12/01 10:38:32;;;;;;;27.85;6.88;;;14.90;44.70;;;;;;5050715;28;20070;-66
2021/12/01 10:41:18;;;;;;;21.27;6.20;;;14.80;44.90;;;;;;5051160;28;20172;-64
2021/12/01 10:43:48;;;;;;;31.73;5.70;;;14.70;45.40;;;;;;5069367;28;20590;-64
2021/12/01 10:46:17;;;;;;;16.08;5.57;;;14.60;45.40;;;;;;5036128;28;20093;-64
2021/12/01 10:49:00;;;;;;;22.58;5.85;;;14.50;45.60;;;;;;5052604;28;20164;-66
2021/12/01 10:51:38;;;;;;;26.17;6.43;;;14.50;46.20;;;;;;5069239;28;20097;-65
2021/12/01 10:54:12;;;;;;;17.30;5.40;;;14.60;46.80;;;;;;5052808;28;20069;-64
2021/12/01 10:56:39;;;;;;;28.50;6.75;;;14.60;46.80;;;;;;5039690;28;20120;-64
2021/12/01 10:59:12;;;;;;;;;;;14.60;47.40;;;;;;5045730;28;20069;-64
2021/12/01 11:01:39;;;;;;;25.95;7.47;;;14.60;46.70;;;;;;5052480;28;20354;-64
2021/12/01 11:04:06;;;;;;;26.98;7.32;;;14.60;47.10;;;;;;5079316;28;20069;-64
2021/12/01 11:06:41;;;;;;;27.92;7.15;;;14.50;46.60;;;;;;5053014;28;20574;-66
2021/12/01 11:09:09;;;;;;;34.78;8.10;;;14.50;47.20;;;;;;5039210;28;20079;-66
2021/12/01 11:11:39;;;;;;;25.92;9.32;;;14.50;47.20;;;;;;5055578;28;20457;-63
2021/12/01 11:14:17;;;;;;;36.10;8.60;;;14.50;47.40;;;;;;5056039;28;20165;-63
2021/12/01 11:16:44;;;;;;;40.22;9.57;;;14.40;47.10;;;;;;5045611;28;20435;-65
2021/12/01 11:19:12;;;;;;;28.67;8.82;;;14.40;47.40;;;;;;5071812;28;20543;-66
2021/12/01 11:21:39;;;;;;;27.42;9.48;;;14.50;47.20;;;;;;5073689;28;20084;-65
2021/12/01 11:24:09;;;;;;;43.50;10.27;;;14.50;47.00;;;;;;5057287;28;20072;-64
2021/12/01 11:26:36;;;;;;;34.92;10.00;;;14.40;46.60;;;;;;5083825;28;20087;-66
2021/12/01 11:29:08;;;;;;;30.08;9.48;;;14.50;47.10;;;;;;5037909;28;20077;-65
2021/12/01 11:31:44;;;;;;;28.10;10.20;;;14.50;47.20;;;;;;5071652;28;20091;-65
2021/12/01 11:34:14;;;;;;;33.22;9.95;;;14.50;47.40;;;;;;5054853;28;20566;-64
2021/12/01 11:36:49;;;;;;;27.90;9.55;;;14.50;47.70;;;;;;5037098;28;20528;-65
2021/12/01 11:39:30;;;;;;;33.72;9.23;;;14.40;47.60;;;;;;5072109;28;20468;-64
2021/12/01 11:41:56;;;;;;;28.50;10.02;;;14.40;47.90;;;;;;5039783;28;20091;-65
2021/12/01 11:44:25;;;;;;;37.97;10.20;;;14.40;48.10;;;;;;5055907;28;20203;-67
2021/12/01 11:46:52;;;;;;;38.88;10.77;;;14.40;48.10;;;;;;5056788;28;20109;-66
2021/12/01 11:49:24;;;;;;;37.42;10.82;;;14.30;48.00;;;;;;5053722;28;20099;-66
2021/12/01 11:52:04;;;;;;;39.47;10.95;;;14.30;48.70;;;;;;5039473;28;20539;-65
2021/12/01 11:54:33;;;;;;;37.40;10.50;;;14.30;48.70;;;;;;5056178;28;20470;-66
2021/12/01 11:57:04;;;;;;;37.35;10.60;;;14.20;48.90;;;;;;5073303;28;20077;-66
2021/12/01 11:59:38;;;;;;;42.58;10.85;;;14.20;48.90;;;;;;5072587;28;20168;-66
2021/12/01 12:02:20;;;;;;;31.65;11.07;;;14.20;48.70;;;;;;5074682;28;20137;-63
2021/12/01 12:04:51;;;;;;;36.85;10.90;;;14.20;49.30;;;;;;5091001;28;20107;-66
2021/12/01 12:07:30;;;;;;;36.72;10.57;;;14.10;49.60;;;;;;5074458;28;20582;-64
2021/12/01 12:10:13;;;;;;;36.28;10.20;;;14.10;49.30;;;;;;5039269;28;20077;-66
2021/12/01 12:12:43;;;;;;;40.13;11.32;;;14.10;50.30;;;;;;5038462;28;20127;-66
2021/12/01 12:15:10;;;;;;;35.13;10.55;;;14.10;50.50;;;;;;5056810;28;20072;-66
2021/12/01 12:17:36;;;;;;;40.45;11.23;;;14.10;50.40;;;;;;5073017;28;20074;-65
2021/12/01 12:20:15;;;;;;;;;;;14.00;50.10;;;;;;5054208;28;20558;-67
2021/12/01 12:22:44;;;;;;;33.47;11.30;;;14.00;49.80;;;;;;5070482;28;19967;-65
2021/12/01 12:25:33;;;;;;;37.05;12.38;;;14.00;50.30;;;;;;5053980;28;20429;-65
2021/12/01 12:27:59;;;;;;;47.78;11.77;;;14.00;50.40;;;;;;5053456;28;20556;-65
2021/12/01 12:30:35;;;;;;;44.30;10.98;;;14.00;50.00;;;;;;5054298;28;20073;-65
2021/12/01 12:33:22;;;;;;;37.42;11.23;;;13.90;49.70;;;;;;5072090;28;20073;-64
2021/12/01 12:35:50;;;;;;;;;;;13.80;49.50;;;;;;5089734;28;20129;-65
2021/12/01 12:38:18;;;;;;;36.40;10.68;;;13.80;49.80;;;;;;5056394;28;20303;-65
2021/12/01 12:40:46;;;;;;;27.92;10.27;;;13.80;49.90;;;;;;5037773;28;20306;-65
2021/12/01 12:43:23;;;;;;;39.80;11.75;;;13.80;50.10;;;;;;5070752;28;20123;-66
2021/12/01 12:46:31;;;;;;;33.60;10.85;;;13.70;50.10;;;;;;5070253;28;20084;-65
2021/12/01 12:48:57;;;;;;;35.03;11.25;;;13.80;50.80;;;;;;4975473;28;20169;-65
2021/12/01 12:51:26;;;;;;;;;;;13.80;51.20;;;;;;4977362;28;20460;-65
2021/12/01 12:54:07;;;;;;;37.65;12.13;;;13.70;51.70;;;;;;5008944;28;20108;-65